THY72M LTFM-LTFC
Flight info
| Callsign | THY72M |
|---|---|
| Flight time | 0h 53m |
| Altitude | 29000 |
| Route | LTFM SID RATVU UT35 BABSA STAR LTFC |
| Aircraft | B738/M-SDE2E3FGHIRWXY/LB1 |
Departure
| Time | 2026-05-01 08:40 |
|---|---|
| Airport | İstanbul Airport (LTFM) |
Arrival
| Time | 2026-05-01 09:34 |
|---|---|
| Airport | Süleyman Demirel International Airport (LTFC) |
| Time | Latitude | Longitude | Altitude | Speed | Heading |
|---|---|---|---|---|---|
| 2026-05-01 08:01 | 41.27056 | 28.72095 | 306 ft | 0 kts | 268° |
| 2026-05-01 08:30 | 41.27056 | 28.72114 | 307 ft | 4 kts | 268° |
| 2026-05-01 08:30 | 41.27057 | 28.72150 | 305 ft | 4 kts | 268° |
| 2026-05-01 08:31 | 41.27058 | 28.72187 | 305 ft | 4 kts | 267° |
| 2026-05-01 08:31 | 41.27060 | 28.72223 | 307 ft | 4 kts | 265° |
| 2026-05-01 08:31 | 41.27063 | 28.72257 | 306 ft | 4 kts | 257° |
| 2026-05-01 08:31 | 41.27069 | 28.72276 | 308 ft | 2 kts | 213° |
| 2026-05-01 08:32 | 41.27080 | 28.72280 | 307 ft | 2 kts | 178° |
| 2026-05-01 08:32 | 41.27082 | 28.72280 | 307 ft | 0 kts | 178° |
| 2026-05-01 08:34 | 41.27079 | 28.72280 | 306 ft | 2 kts | 178° |
| 2026-05-01 08:34 | 41.27049 | 28.72281 | 308 ft | 8 kts | 179° |
| 2026-05-01 08:35 | 41.26968 | 28.72282 | 309 ft | 15 kts | 179° |
| 2026-05-01 08:35 | 41.26845 | 28.72285 | 311 ft | 18 kts | 179° |
| 2026-05-01 08:35 | 41.26800 | 28.72286 | 311 ft | 0 kts | 179° |
| 2026-05-01 08:36 | 41.26798 | 28.72286 | 311 ft | 1 kts | 179° |
| 2026-05-01 08:36 | 41.26765 | 28.72286 | 312 ft | 9 kts | 179° |
| 2026-05-01 08:36 | 41.26711 | 28.72347 | 313 ft | 11 kts | 90° |
| 2026-05-01 08:36 | 41.26711 | 28.72366 | 315 ft | 0 kts | 90° |
| 2026-05-01 08:38 | 41.26711 | 28.72367 | 315 ft | 1 kts | 90° |
| 2026-05-01 08:38 | 41.26711 | 28.72417 | 319 ft | 7 kts | 89° |
| 2026-05-01 08:38 | 41.26715 | 28.72488 | 322 ft | 10 kts | 70° |
| 2026-05-01 08:39 | 41.26768 | 28.72514 | 323 ft | 0 kts | 359° |
| 2026-05-01 08:39 | 41.26771 | 28.72514 | 323 ft | 0 kts | 359° |
| 2026-05-01 08:40 | 41.27172 | 28.72506 | 317 ft | 105 kts | 359° |
| 2026-05-01 08:40 | 41.28158 | 28.72507 | 649 ft | 159 kts | 3° |
| 2026-05-01 08:40 | 41.29278 | 28.72467 | 1948 ft | 165 kts | 1° |
| 2026-05-01 08:41 | 41.30491 | 28.72392 | 2898 ft | 180 kts | 1° |
| 2026-05-01 08:41 | 41.31821 | 28.72407 | 3483 ft | 201 kts | 5° |
| 2026-05-01 08:41 | 41.33256 | 28.72463 | 4240 ft | 212 kts | 4° |
| 2026-05-01 08:41 | 41.34767 | 28.72493 | 5020 ft | 225 kts | 359° |
| 2026-05-01 08:42 | 41.36306 | 28.71765 | 5778 ft | 245 kts | 330° |
| 2026-05-01 08:42 | 41.37487 | 28.70082 | 6606 ft | 258 kts | 304° |
| 2026-05-01 08:42 | 41.38130 | 28.67790 | 7433 ft | 273 kts | 284° |
| 2026-05-01 08:42 | 41.38187 | 28.65244 | 8279 ft | 276 kts | 271° |
| 2026-05-01 08:43 | 41.38140 | 28.62670 | 9129 ft | 278 kts | 270° |
| 2026-05-01 08:43 | 41.38090 | 28.60097 | 9985 ft | 278 kts | 266° |
| 2026-05-01 08:43 | 41.37539 | 28.57658 | 10757 ft | 281 kts | 238° |
| 2026-05-01 08:43 | 41.36118 | 28.55808 | 11582 ft | 296 kts | 212° |
| 2026-05-01 08:44 | 41.34081 | 28.54979 | 12120 ft | 322 kts | 185° |
| 2026-05-01 08:44 | 41.31780 | 28.55044 | 12755 ft | 339 kts | 181° |
| 2026-05-01 08:44 | 41.29369 | 28.55148 | 13517 ft | 350 kts | 181° |
| 2026-05-01 08:44 | 41.26933 | 28.55255 | 14542 ft | 352 kts | 178° |
| 2026-05-01 08:45 | 41.24589 | 28.56108 | 15494 ft | 362 kts | 156° |
| 2026-05-01 08:45 | 41.22556 | 28.58143 | 16455 ft | 371 kts | 139° |
| 2026-05-01 08:45 | 41.20707 | 28.60585 | 17280 ft | 378 kts | 138° |
| 2026-05-01 08:45 | 41.18821 | 28.63067 | 18092 ft | 385 kts | 139° |
| 2026-05-01 08:46 | 41.16892 | 28.65573 | 18862 ft | 390 kts | 140° |
| 2026-05-01 08:46 | 41.14927 | 28.68096 | 19704 ft | 392 kts | 140° |
| 2026-05-01 08:46 | 41.13125 | 28.70401 | 20462 ft | 395 kts | 140° |
| 2026-05-01 08:47 | 41.11554 | 28.72806 | 21124 ft | 404 kts | 130° |
| 2026-05-01 08:47 | 41.10042 | 28.75931 | 21859 ft | 411 kts | 126° |
| 2026-05-01 08:47 | 41.08551 | 28.79195 | 22566 ft | 416 kts | 127° |
| 2026-05-01 08:47 | 41.07013 | 28.82461 | 23276 ft | 420 kts | 129° |
| 2026-05-01 08:48 | 41.05421 | 28.85741 | 23969 ft | 423 kts | 130° |
| 2026-05-01 08:48 | 41.03645 | 28.88806 | 24580 ft | 414 kts | 144° |
| 2026-05-01 08:48 | 41.01310 | 28.90844 | 25312 ft | 395 kts | 164° |
| 2026-05-01 08:48 | 40.98734 | 28.91905 | 26023 ft | 382 kts | 177° |
| 2026-05-01 08:49 | 40.96124 | 28.92078 | 26608 ft | 373 kts | 190° |
| 2026-05-01 08:49 | 40.93555 | 28.91711 | 27330 ft | 369 kts | 192° |
| 2026-05-01 08:49 | 40.91018 | 28.91348 | 28187 ft | 364 kts | 191° |
| 2026-05-01 08:49 | 40.88500 | 28.91014 | 28859 ft | 364 kts | 191° |
| 2026-05-01 08:50 | 40.85961 | 28.90834 | 29170 ft | 367 kts | 185° |
| 2026-05-01 08:50 | 40.83389 | 28.90978 | 29168 ft | 370 kts | 182° |
| 2026-05-01 08:50 | 40.78248 | 28.91527 | 29192 ft | 373 kts | 182° |
| 2026-05-01 08:51 | 40.75619 | 28.91789 | 29365 ft | 383 kts | 182° |
| 2026-05-01 08:51 | 40.72960 | 28.92032 | 30008 ft | 381 kts | 182° |
| 2026-05-01 08:51 | 40.70336 | 28.92260 | 30730 ft | 376 kts | 182° |
| 2026-05-01 08:51 | 40.67722 | 28.92476 | 31083 ft | 378 kts | 183° |
| 2026-05-01 08:52 | 40.62414 | 28.92897 | 31148 ft | 386 kts | 182° |
| 2026-05-01 08:52 | 40.57097 | 28.93344 | 31145 ft | 382 kts | 180° |
| 2026-05-01 08:53 | 40.54487 | 28.94198 | 31149 ft | 393 kts | 165° |
| 2026-05-01 08:53 | 40.52064 | 28.95973 | 31157 ft | 403 kts | 155° |
| 2026-05-01 08:53 | 40.47394 | 29.00044 | 31163 ft | 404 kts | 154° |
| 2026-05-01 08:54 | 40.42667 | 29.04138 | 31126 ft | 408 kts | 155° |
| 2026-05-01 08:54 | 40.37904 | 29.08211 | 31120 ft | 407 kts | 155° |
| 2026-05-01 08:55 | 40.33159 | 29.12245 | 31130 ft | 407 kts | 155° |
| 2026-05-01 08:55 | 40.28301 | 29.16353 | 31134 ft | 423 kts | 155° |
| 2026-05-01 08:56 | 40.24165 | 29.19861 | 31106 ft | 425 kts | 154° |
| 2026-05-01 08:56 | 40.18395 | 29.24695 | 31116 ft | 419 kts | 159° |
| 2026-05-01 08:57 | 40.13061 | 29.27376 | 31115 ft | 409 kts | 168° |
| 2026-05-01 08:57 | 40.08542 | 29.29400 | 31112 ft | 410 kts | 168° |
| 2026-05-01 08:58 | 40.03161 | 29.31908 | 31109 ft | 412 kts | 167° |
| 2026-05-01 08:58 | 39.97788 | 29.34457 | 31120 ft | 415 kts | 167° |
| 2026-05-01 08:59 | 39.92335 | 29.37042 | 31114 ft | 419 kts | 167° |
| 2026-05-01 08:59 | 39.86863 | 29.39790 | 31112 ft | 424 kts | 164° |
| 2026-05-01 09:00 | 39.81438 | 29.42851 | 31097 ft | 426 kts | 163° |
| 2026-05-01 09:00 | 39.75996 | 29.45898 | 31095 ft | 424 kts | 163° |
| 2026-05-01 09:01 | 39.70564 | 29.48885 | 31088 ft | 422 kts | 164° |
| 2026-05-01 09:01 | 39.65186 | 29.51828 | 31090 ft | 421 kts | 164° |
| 2026-05-01 09:02 | 39.59749 | 29.54676 | 31084 ft | 421 kts | 165° |
| 2026-05-01 09:02 | 39.54274 | 29.57374 | 31087 ft | 421 kts | 166° |
| 2026-05-01 09:03 | 39.48784 | 29.60080 | 31077 ft | 423 kts | 165° |
| 2026-05-01 09:03 | 39.43308 | 29.62796 | 31076 ft | 424 kts | 165° |
| 2026-05-01 09:04 | 39.37781 | 29.65544 | 31069 ft | 426 kts | 165° |
| 2026-05-01 09:04 | 39.32242 | 29.68294 | 31064 ft | 427 kts | 165° |
| 2026-05-01 09:05 | 39.26682 | 29.71051 | 31051 ft | 427 kts | 165° |
| 2026-05-01 09:05 | 39.21126 | 29.73801 | 31049 ft | 428 kts | 165° |
| 2026-05-01 09:06 | 39.15563 | 29.76549 | 31038 ft | 428 kts | 165° |
| 2026-05-01 09:06 | 39.09996 | 29.79295 | 31035 ft | 429 kts | 165° |
| 2026-05-01 09:07 | 39.04461 | 29.82020 | 31028 ft | 428 kts | 165° |
| 2026-05-01 09:07 | 38.98895 | 29.84756 | 31016 ft | 428 kts | 165° |
| 2026-05-01 09:08 | 38.93342 | 29.87481 | 31021 ft | 427 kts | 165° |
| 2026-05-01 09:08 | 38.91962 | 29.88158 | 31022 ft | 427 kts | 165° |
| 2026-05-01 09:09 | 38.87091 | 29.90533 | 31016 ft | 428 kts | 165° |
| 2026-05-01 09:09 | 38.81501 | 29.93191 | 30913 ft | 431 kts | 165° |
| 2026-05-01 09:10 | 38.78681 | 29.94524 | 30641 ft | 431 kts | 165° |
| 2026-05-01 09:10 | 38.75864 | 29.95858 | 30396 ft | 429 kts | 165° |
| 2026-05-01 09:10 | 38.73063 | 29.97185 | 30147 ft | 429 kts | 165° |
| 2026-05-01 09:10 | 38.70304 | 29.98492 | 29875 ft | 431 kts | 165° |
| 2026-05-01 09:11 | 38.67531 | 29.99806 | 29158 ft | 431 kts | 165° |
| 2026-05-01 09:11 | 38.64727 | 30.01133 | 28334 ft | 430 kts | 165° |
| 2026-05-01 09:11 | 38.62184 | 30.02338 | 27789 ft | 424 kts | 165° |
| 2026-05-01 09:11 | 38.62110 | 30.02373 | 27774 ft | 424 kts | 165° |
| 2026-05-01 09:12 | 38.59362 | 30.03675 | 27117 ft | 419 kts | 165° |
| 2026-05-01 09:12 | 38.59339 | 30.03686 | 27113 ft | 419 kts | 165° |
| 2026-05-01 09:12 | 38.59182 | 30.03761 | 27075 ft | 419 kts | 165° |
| 2026-05-01 09:12 | 38.56459 | 30.05048 | 26441 ft | 414 kts | 165° |
| 2026-05-01 09:13 | 38.53774 | 30.06316 | 25852 ft | 410 kts | 165° |
| 2026-05-01 09:13 | 38.51919 | 30.07191 | 25429 ft | 407 kts | 165° |
| 2026-05-01 09:13 | 38.50804 | 30.07717 | 25182 ft | 406 kts | 165° |
| 2026-05-01 09:13 | 38.49792 | 30.08193 | 24959 ft | 404 kts | 165° |
| 2026-05-01 09:14 | 38.49169 | 30.08486 | 24819 ft | 404 kts | 165° |
| 2026-05-01 09:14 | 38.48416 | 30.08841 | 24656 ft | 403 kts | 165° |
| 2026-05-01 09:14 | 38.47246 | 30.09391 | 24389 ft | 402 kts | 165° |
| 2026-05-01 09:15 | 38.44634 | 30.10620 | 23782 ft | 400 kts | 165° |
| 2026-05-01 09:15 | 38.42024 | 30.11846 | 23116 ft | 398 kts | 165° |
| 2026-05-01 09:15 | 38.39441 | 30.13061 | 22470 ft | 395 kts | 165° |
| 2026-05-01 09:15 | 38.36906 | 30.14252 | 21867 ft | 391 kts | 165° |
| 2026-05-01 09:16 | 38.34372 | 30.15442 | 21282 ft | 387 kts | 165° |
| 2026-05-01 09:16 | 38.31849 | 30.16614 | 20641 ft | 385 kts | 166° |
| 2026-05-01 09:16 | 38.29342 | 30.17764 | 20044 ft | 382 kts | 166° |
| 2026-05-01 09:17 | 38.24364 | 30.20045 | 18897 ft | 377 kts | 166° |
| 2026-05-01 09:17 | 38.21896 | 30.21178 | 18308 ft | 376 kts | 166° |
| 2026-05-01 09:17 | 38.17013 | 30.23421 | 17087 ft | 370 kts | 165° |
| 2026-05-01 09:18 | 38.14600 | 30.24529 | 16519 ft | 366 kts | 165° |
| 2026-05-01 09:18 | 38.09851 | 30.26706 | 15426 ft | 358 kts | 165° |
| 2026-05-01 09:19 | 38.05381 | 30.28738 | 14393 ft | 352 kts | 165° |
| 2026-05-01 09:19 | 38.03083 | 30.29768 | 13882 ft | 349 kts | 165° |
| 2026-05-01 09:19 | 38.00803 | 30.30787 | 13337 ft | 345 kts | 165° |
| 2026-05-01 09:20 | 37.96402 | 30.32687 | 12299 ft | 338 kts | 165° |
| 2026-05-01 09:20 | 37.92136 | 30.34547 | 11256 ft | 333 kts | 163° |
| 2026-05-01 09:21 | 37.88011 | 30.36041 | 10422 ft | 318 kts | 178° |
| 2026-05-01 09:21 | 37.85862 | 30.35976 | 10431 ft | 296 kts | 188° |
| 2026-05-01 09:21 | 37.81986 | 30.35434 | 10374 ft | 265 kts | 189° |
| 2026-05-01 09:22 | 37.78663 | 30.34357 | 10298 ft | 238 kts | 219° |
| 2026-05-01 09:22 | 37.76930 | 30.30686 | 9214 ft | 256 kts | 247° |
| 2026-05-01 09:23 | 37.76267 | 30.28559 | 8654 ft | 263 kts | 247° |
| 2026-05-01 09:23 | 37.74751 | 30.24416 | 7837 ft | 251 kts | 244° |
| 2026-05-01 09:24 | 37.73328 | 30.20553 | 7228 ft | 234 kts | 244° |
| 2026-05-01 09:24 | 37.72651 | 30.18710 | 6945 ft | 228 kts | 245° |
| 2026-05-01 09:24 | 37.71152 | 30.15267 | 6319 ft | 222 kts | 230° |
| 2026-05-01 09:25 | 37.69123 | 30.12403 | 5712 ft | 214 kts | 230° |
| 2026-05-01 09:25 | 37.67059 | 30.10028 | 5122 ft | 198 kts | 198° |
| 2026-05-01 09:26 | 37.65707 | 30.09992 | 4928 ft | 193 kts | 178° |
| 2026-05-01 09:26 | 37.63062 | 30.10135 | 4650 ft | 183 kts | 194° |
| 2026-05-01 09:26 | 37.62048 | 30.09411 | 4609 ft | 171 kts | 233° |
| 2026-05-01 09:27 | 37.62240 | 30.06431 | 4652 ft | 203 kts | 311° |
| 2026-05-01 09:27 | 37.63529 | 30.05752 | 4663 ft | 206 kts | 358° |
| 2026-05-01 09:27 | 37.64842 | 30.06391 | 4658 ft | 208 kts | 40° |
| 2026-05-01 09:28 | 37.65859 | 30.07686 | 4663 ft | 208 kts | 43° |
| 2026-05-01 09:28 | 37.66892 | 30.08955 | 4648 ft | 208 kts | 46° |
| 2026-05-01 09:28 | 37.67854 | 30.10340 | 4628 ft | 209 kts | 48° |
| 2026-05-01 09:28 | 37.68789 | 30.11741 | 4626 ft | 211 kts | 48° |
| 2026-05-01 09:29 | 37.70690 | 30.14592 | 4605 ft | 213 kts | 48° |
| 2026-05-01 09:29 | 37.71645 | 30.16020 | 4598 ft | 215 kts | 47° |
| 2026-05-01 09:30 | 37.73536 | 30.18843 | 4559 ft | 209 kts | 47° |
| 2026-05-01 09:30 | 37.74460 | 30.20226 | 4543 ft | 204 kts | 47° |
| 2026-05-01 09:30 | 37.76250 | 30.22895 | 4532 ft | 196 kts | 46° |
| 2026-05-01 09:31 | 37.77110 | 30.24181 | 4569 ft | 191 kts | 47° |
| 2026-05-01 09:31 | 37.77958 | 30.25437 | 4542 ft | 182 kts | 48° |
| 2026-05-01 09:31 | 37.79492 | 30.27731 | 4587 ft | 162 kts | 46° |
| 2026-05-01 09:32 | 37.80237 | 30.28841 | 4327 ft | 165 kts | 47° |
| 2026-05-01 09:32 | 37.81639 | 30.30938 | 3879 ft | 149 kts | 47° |
| 2026-05-01 09:32 | 37.82316 | 30.31904 | 3669 ft | 147 kts | 47° |
| 2026-05-01 09:33 | 37.82975 | 30.32918 | 3453 ft | 153 kts | 50° |
| 2026-05-01 09:33 | 37.83643 | 30.33920 | 3253 ft | 150 kts | 47° |
| 2026-05-01 09:33 | 37.85058 | 30.36022 | 2849 ft | 151 kts | 47° |
| 2026-05-01 09:34 | 37.85636 | 30.36884 | 2843 ft | 100 kts | 49° |
| 2026-05-01 09:34 | 37.85949 | 30.37346 | 2842 ft | 40 kts | 50° |
| 2026-05-01 09:34 | 37.86049 | 30.37451 | 2843 ft | 8 kts | 226° |
| 2026-05-01 09:35 | 37.85987 | 30.37402 | 2841 ft | 13 kts | 220° |
| 2026-05-01 09:35 | 37.85827 | 30.37167 | 2841 ft | 22 kts | 229° |
| 2026-05-01 09:35 | 37.85718 | 30.37005 | 2841 ft | 26 kts | 230° |
| 2026-05-01 09:36 | 37.85660 | 30.36868 | 2842 ft | 5 kts | 310° |
| 2026-05-01 09:36 | 37.85704 | 30.36828 | 2843 ft | 10 kts | 322° |
| 2026-05-01 09:36 | 37.85769 | 30.36764 | 2843 ft | 13 kts | 322° |
| 2026-05-01 09:36 | 37.85806 | 30.36726 | 2843 ft | 1 kts | 320° |
| 2026-05-01 09:37 | 37.85833 | 30.36725 | 2843 ft | 7 kts | 357° |
| 2026-05-01 09:37 | 37.85875 | 30.36692 | 2842 ft | 0 kts | 320° |